»·PEaware :: WAT3512 KPRC-KCOS

WAT3512 :: KPRC-KCOS

FLIGHT INFORMATION

Flight Status: Arrived
Operator:
Walker Air Transport
More flights by this operator :: More flights under this callsign
Pilot: Richard A. (43314)
Aircraft: BEECH AIRCRAFT SUPER KING AIR 350
(B350)
More flights by this aircraft type
Origin: KPRC Love
United States
Destination: KCOS City Of Colorado Springs Mun
United States
More flights between these airports :: More routes between these airports
Route: PRC3 DRK V12 INW J44 ALS DBRY5
File this flight plan on PilotEdge
Remarks: RMK / SIMBRIEF
Altitude:
(Current/Filed)
25,000ft
Speed:
(Current/Filed)
310kts
Departed: 18-May-23 12:22 PM
Arrived: 18-May-23 02:12 PM
Distance/Time
Traveled:
446nm/1:49
Distance/Time
To Go:
Arrived

Flight Plot

Page will automatically refresh every two minutes.

Flight plan parsing failed; only flown route is shown


Map Options




Map Legend


Flown Route
Filed Route
Departure Airport
Arrival Airport
Navaid (VOR, NDB)
Fix

Horizontal Profiles

Position Reports

Time Latitude Longitude Heading Altitude Ground
Speed
18-May-23 11:24 34.646714 -112.424193 308 5024ft 0kts
18-May-23 11:25 34.646714 -112.424193 308 5024ft 0kts
18-May-23 11:26 34.646714 -112.424193 308 5024ft 0kts
18-May-23 11:27 34.646714 -112.424193 308 5024ft 0kts
18-May-23 11:28 34.646714 -112.424193 308 5024ft 0kts
18-May-23 11:29 34.646714 -112.424193 308 5024ft 0kts
18-May-23 11:30 34.646714 -112.424193 308 5024ft 0kts
18-May-23 11:31 34.646714 -112.424193 308 5024ft 0kts
18-May-23 11:32 34.646714 -112.424193 308 5024ft 0kts
18-May-23 11:33 34.646714 -112.424193 308 5024ft 0kts
18-May-23 11:34 34.646714 -112.424193 308 5024ft 0kts
18-May-23 11:35 34.646714 -112.424193 308 5024ft 0kts
18-May-23 11:36 34.646714 -112.424193 308 5024ft 0kts
18-May-23 11:37 34.646714 -112.424193 308 5024ft 0kts
18-May-23 11:38 34.646714 -112.424193 308 5024ft 0kts
18-May-23 11:39 34.646714 -112.424193 308 5024ft 0kts
18-May-23 11:40 34.646714 -112.424193 308 5024ft 0kts
18-May-23 11:41 34.646714 -112.424193 308 5024ft 0kts
18-May-23 11:42 34.646714 -112.424193 308 5024ft 0kts
18-May-23 11:43 34.646714 -112.424193 308 5024ft 0kts
18-May-23 11:44 34.646714 -112.424193 308 5024ft 0kts
18-May-23 11:45 34.646715 -112.424193 308 5024ft 0kts
18-May-23 11:46 34.646715 -112.424193 308 5024ft 0kts
18-May-23 11:47 34.646715 -112.424193 308 5024ft 0kts
18-May-23 11:48 34.646715 -112.424193 308 5024ft 0kts
18-May-23 11:49 34.646715 -112.424193 308 5024ft 0kts
18-May-23 11:50 34.646715 -112.424193 308 5024ft 0kts
18-May-23 11:51 34.646715 -112.424193 308 5024ft 0kts
18-May-23 11:52 34.646715 -112.424193 308 5024ft 0kts
18-May-23 11:53 34.646715 -112.424193 308 5024ft 0kts
18-May-23 11:54 34.646715 -112.424193 308 5024ft 0kts
18-May-23 11:55 34.646715 -112.424193 308 5024ft 0kts
18-May-23 11:56 34.646715 -112.424193 308 5024ft 0kts
18-May-23 11:57 34.646715 -112.424193 308 5024ft 0kts
18-May-23 11:58 34.646715 -112.424193 308 5024ft 0kts
18-May-23 11:59 34.646715 -112.424193 308 5024ft 0kts
18-May-23 12:00 34.646715 -112.424193 308 5024ft 0kts
18-May-23 12:01 34.646715 -112.424193 308 5024ft 0kts
18-May-23 12:02 34.646715 -112.424193 308 5024ft 0kts
18-May-23 12:03 34.646715 -112.424193 308 5024ft 0kts
18-May-23 12:04 34.646715 -112.424193 308 5024ft 0kts
18-May-23 12:05 34.646715 -112.424193 308 5024ft 0kts
18-May-23 12:06 34.646715 -112.424193 308 5024ft 0kts
18-May-23 12:07 34.646715 -112.424193 308 5024ft 0kts
18-May-23 12:08 34.646747 -112.424243 307 5024ft 0kts
18-May-23 12:09 34.647041 -112.424996 317 5023ft 5kts
18-May-23 12:10 34.648718 -112.423849 41 5016ft 7kts
18-May-23 12:11 34.650248 -112.422234 41 5013ft 8kts
18-May-23 12:13 34.652280 -112.420086 40 5004ft 7kts
18-May-23 12:14 34.653635 -112.418634 40 4999ft 9kts
18-May-23 12:15 34.656024 -112.416116 40 4979ft 8kts
18-May-23 12:16 34.657310 -112.414722 41 4971ft 11kts
18-May-23 12:17 34.658947 -112.412340 41 4958ft 9kts
18-May-23 12:18 34.660458 -112.410731 41 4951ft 7kts
18-May-23 12:19 34.661207 -112.410119 341 4948ft 0kts
18-May-23 12:20 34.661207 -112.410119 341 4948ft 0kts
18-May-23 12:21 34.662049 -112.411256 305 4947ft 5kts
18-May-23 12:22 34.659985 -112.413645 222 4956ft 72kts
18-May-23 12:23 34.634239 -112.438799 216 5750ft 129kts
18-May-23 12:24 34.603532 -112.465327 216 6751ft 154kts
18-May-23 12:25 34.575801 -112.505643 287 7749ft 179kts
18-May-23 12:26 34.620000 -112.507982 18 8778ft 190kts
18-May-23 12:27 34.671286 -112.490489 15 9819ft 193kts
18-May-23 12:28 34.708425 -112.452362 75 10869ft 191kts
18-May-23 12:29 34.722554 -112.389666 76 11866ft 193kts
18-May-23 12:30 34.736539 -112.326099 77 12804ft 196kts
18-May-23 12:31 34.750752 -112.261266 77 13687ft 199kts
18-May-23 12:32 34.765044 -112.195895 78 14512ft 202kts
18-May-23 12:33 34.779526 -112.129519 79 15289ft 205kts
18-May-23 12:34 34.794243 -112.061879 79 16024ft 208kts
18-May-23 12:35 34.809145 -111.993104 80 16716ft 211kts
18-May-23 12:36 34.824271 -111.923079 80 17374ft 214kts
18-May-23 12:36 34.837032 -111.863857 80 17924ft 215kts
18-May-23 12:38 34.854469 -111.782705 81 18931ft 211kts
18-May-23 12:39 34.869531 -111.712324 81 19694ft 215kts
18-May-23 12:40 34.884820 -111.640620 82 20423ft 220kts
18-May-23 12:41 34.900266 -111.567995 82 21219ft 220kts
18-May-23 12:41 34.912902 -111.508438 82 22191ft 213kts
18-May-23 12:42 34.927903 -111.437375 82 23048ft 219kts
18-May-23 12:44 34.945836 -111.352238 82 24045ft 224kts
18-May-23 12:45 34.961479 -111.277739 83 24841ft 228kts
18-May-23 12:45 34.974966 -111.213214 82 25153ft 245kts
18-May-23 12:46 34.992309 -111.130158 81 25100ft 256kts
18-May-23 12:47 35.010101 -111.044460 80 25089ft 264kts
18-May-23 12:48 35.028646 -110.954813 77 25088ft 278kts
18-May-23 12:49 35.048082 -110.860666 74 25086ft 289kts
18-May-23 12:50 35.077754 -110.770350 47 25113ft 288kts
18-May-23 12:51 35.128294 -110.692336 47 25087ft 296kts
18-May-23 12:52 35.180158 -110.612268 47 25086ft 302kts
18-May-23 12:53 35.232850 -110.530725 47 25086ft 307kts
18-May-23 12:54 35.286136 -110.448070 47 25086ft 310kts
18-May-23 12:55 35.339848 -110.364566 47 25086ft 312kts
18-May-23 12:56 35.393668 -110.280677 48 25080ft 313kts
18-May-23 12:57 35.447699 -110.196265 48 25080ft 313kts
18-May-23 12:58 35.501479 -110.112051 48 25095ft 313kts
18-May-23 12:59 35.555228 -110.027667 48 25136ft 313kts
18-May-23 13:00 35.608910 -109.943186 48 25176ft 313kts
18-May-23 13:01 35.662789 -109.858180 48 25193ft 314kts
18-May-23 13:02 35.716910 -109.772583 48 25193ft 315kts
18-May-23 13:03 35.771096 -109.686670 48 25193ft 316kts
18-May-23 13:04 35.825153 -109.600736 48 25194ft 317kts
18-May-23 13:05 35.879122 -109.514733 48 25194ft 317kts
18-May-23 13:06 35.933101 -109.428501 48 25195ft 318kts
18-May-23 13:07 35.987318 -109.341664 49 25192ft 318kts
18-May-23 13:08 36.041457 -109.254746 49 25189ft 318kts
18-May-23 13:09 36.095298 -109.168057 48 25188ft 317kts
18-May-23 13:10 36.149316 -109.080889 48 25181ft 318kts
18-May-23 13:11 36.203650 -108.992973 47 25182ft 318kts
18-May-23 13:12 36.257629 -108.905439 47 25171ft 319kts
18-May-23 13:13 36.312040 -108.816963 47 25121ft 321kts
18-May-23 13:14 36.366725 -108.727796 47 25065ft 323kts
18-May-23 13:15 36.421342 -108.638503 47 25057ft 322kts
18-May-23 13:16 36.475717 -108.549384 47 25058ft 321kts
18-May-23 13:17 36.529973 -108.460229 47 25058ft 321kts
18-May-23 13:18 36.584350 -108.370624 47 25059ft 322kts
18-May-23 13:19 36.638587 -108.281028 48 25050ft 321kts
18-May-23 13:20 36.692492 -108.191742 48 25051ft 320kts
18-May-23 13:21 36.745969 -108.102304 55 25043ft 323kts
18-May-23 13:22 36.776851 -107.995092 67 25054ft 326kts
18-May-23 13:23 36.806359 -107.887105 68 25070ft 326kts
18-May-23 13:24 36.835716 -107.779216 68 25087ft 326kts
18-May-23 13:25 36.865098 -107.670777 68 25093ft 327kts
18-May-23 13:26 36.894443 -107.562037 68 25094ft 328kts
18-May-23 13:27 36.923602 -107.453517 68 25117ft 328kts
18-May-23 13:28 36.952635 -107.345032 68 25161ft 328kts
18-May-23 13:29 36.981599 -107.236333 68 25190ft 326kts
18-May-23 13:30 37.010397 -107.127811 68 25190ft 325kts
18-May-23 13:31 37.038834 -107.020210 67 25190ft 323kts
18-May-23 13:32 37.066963 -106.913313 67 25189ft 321kts
18-May-23 13:33 37.094866 -106.806858 67 25190ft 319kts
18-May-23 13:34 37.122560 -106.700778 67 25195ft 317kts
18-May-23 13:35 37.150015 -106.595147 67 25194ft 316kts
18-May-23 13:36 37.177343 -106.489570 67 25193ft 316kts
18-May-23 13:37 37.204565 -106.383963 67 25190ft 316kts
18-May-23 13:38 37.231696 -106.278284 68 25181ft 315kts
18-May-23 13:39 37.258613 -106.172994 68 25182ft 315kts
18-May-23 13:40 37.285521 -106.067296 68 25182ft 314kts
18-May-23 13:41 37.312231 -105.961924 68 25182ft 314kts
18-May-23 13:42 37.339288 -105.854747 68 24591ft 324kts
18-May-23 13:43 37.386448 -105.761885 43 23919ft 317kts
18-May-23 13:44 37.444511 -105.678348 44 22966ft 318kts
18-May-23 13:45 37.502507 -105.594629 44 21882ft 316kts
18-May-23 13:46 37.559977 -105.511450 44 20800ft 314kts
18-May-23 13:47 37.616647 -105.429223 44 19707ft 306kts
18-May-23 13:48 37.670675 -105.350615 44 19174ft 282kts
18-May-23 13:49 37.720496 -105.278004 45 19177ft 269kts
18-May-23 13:50 37.768920 -105.207258 45 19178ft 263kts
18-May-23 13:51 37.816532 -105.137544 45 19155ft 261kts
18-May-23 13:52 37.863953 -105.067956 44 19119ft 260kts
18-May-23 13:53 37.911963 -104.997353 44 19097ft 268kts
18-May-23 13:54 37.960997 -104.925078 44 19093ft 273kts
18-May-23 13:55 38.011201 -104.850910 45 18938ft 281kts
18-May-23 13:56 38.062949 -104.774255 45 17965ft 282kts
18-May-23 13:57 38.113464 -104.699262 45 16387ft 276kts
18-May-23 13:58 38.172873 -104.651629 0 14786ft 252kts
18-May-23 13:59 38.241389 -104.649099 359 13180ft 242kts
18-May-23 14:00 38.303328 -104.647673 358 12721ft 204kts
18-May-23 14:01 38.359124 -104.646457 358 12439ft 206kts
18-May-23 14:02 38.418314 -104.645148 359 11878ft 218kts
18-May-23 14:03 38.475145 -104.668114 328 11314ft 221kts
18-May-23 14:04 38.528840 -104.709426 328 10736ft 226kts
18-May-23 14:05 38.586017 -104.731483 25 10145ft 231kts
18-May-23 14:06 38.643653 -104.716470 358 9604ft 175kts
18-May-23 14:07 38.686335 -104.716114 357 8893ft 137kts
18-May-23 14:08 38.724025 -104.715490 352 7671ft 139kts
18-May-23 14:09 38.760172 -104.716031 355 6739ft 117kts
18-May-23 14:10 38.792192 -104.715974 359 6140ft 115kts
18-May-23 14:11 38.810914 -104.715928 359 6108ft 20kts
18-May-23 14:12 38.812607 -104.717680 270 6112ft 11kts
18-May-23 14:13 38.813036 -104.720286 312 6112ft 9kts
18-May-23 14:14 38.813440 -104.720918 297 6112ft 0kts
18-May-23 14:15 38.813440 -104.720918 297 6112ft 0kts

Navigation Log

Ident Type
Flight plan parsing failed, navigation log unavailable